sensor_id;sensor_type;location;lat;lon;timestamp;P1;durP1;ratioP1;P2;durP2;ratioP2
30898;SDS011;17914;52.484;13.424;2024-02-16T00:02:25;7.78;;;5.00;;
30898;SDS011;17914;52.484;13.424;2024-02-16T00:04:53;6.30;;;4.70;;
30898;SDS011;17914;52.484;13.424;2024-02-16T00:07:22;7.65;;;4.80;;
30898;SDS011;17914;52.484;13.424;2024-02-16T00:09:51;7.43;;;5.82;;
30898;SDS011;17914;52.484;13.424;2024-02-16T00:12:19;7.53;;;4.97;;
30898;SDS011;17914;52.484;13.424;2024-02-16T00:14:47;5.55;;;4.75;;
30898;SDS011;17914;52.484;13.424;2024-02-16T00:17:15;8.05;;;6.13;;
30898;SDS011;17914;52.484;13.424;2024-02-16T00:19:43;8.02;;;5.82;;
30898;SDS011;17914;52.484;13.424;2024-02-16T00:22:11;6.55;;;4.90;;
30898;SDS011;17914;52.484;13.424;2024-02-16T00:24:41;9.73;;;4.80;;
30898;SDS011;17914;52.484;13.424;2024-02-16T00:27:09;8.82;;;5.05;;
30898;SDS011;17914;52.484;13.424;2024-02-16T00:29:38;10.32;;;5.18;;
30898;SDS011;17914;52.484;13.424;2024-02-16T00:32:06;7.22;;;5.88;;
30898;SDS011;17914;52.484;13.424;2024-02-16T00:34:35;6.55;;;5.20;;
30898;SDS011;17914;52.484;13.424;2024-02-16T00:37:05;6.40;;;5.53;;
30898;SDS011;17914;52.484;13.424;2024-02-16T00:39:36;6.17;;;5.20;;
30898;SDS011;17914;52.484;13.424;2024-02-16T00:42:05;8.23;;;6.13;;
30898;SDS011;17914;52.484;13.424;2024-02-16T00:44:34;7.15;;;6.22;;
30898;SDS011;17914;52.484;13.424;2024-02-16T00:47:02;9.02;;;6.30;;
30898;SDS011;17914;52.484;13.424;2024-02-16T00:49:32;6.72;;;5.35;;
30898;SDS011;17914;52.484;13.424;2024-02-16T00:52:00;7.63;;;5.10;;
30898;SDS011;17914;52.484;13.424;2024-02-16T00:54:28;7.55;;;5.72;;
30898;SDS011;17914;52.484;13.424;2024-02-16T00:56:57;7.88;;;5.78;;
30898;SDS011;17914;52.484;13.424;2024-02-16T00:59:30;8.57;;;6.22;;
30898;SDS011;17914;52.484;13.424;2024-02-16T01:01:58;6.90;;;5.80;;
30898;SDS011;17914;52.484;13.424;2024-02-16T01:04:26;6.18;;;5.20;;
30898;SDS011;17914;52.484;13.424;2024-02-16T01:06:56;7.95;;;6.43;;
30898;SDS011;17914;52.484;13.424;2024-02-16T01:09:24;8.50;;;5.30;;
30898;SDS011;17914;52.484;13.424;2024-02-16T01:11:53;5.97;;;5.22;;
30898;SDS011;17914;52.484;13.424;2024-02-16T01:14:21;7.07;;;5.88;;
30898;SDS011;17914;52.484;13.424;2024-02-16T01:16:50;6.30;;;5.38;;
30898;SDS011;17914;52.484;13.424;2024-02-16T01:19:18;7.60;;;5.88;;
30898;SDS011;17914;52.484;13.424;2024-02-16T01:21:47;7.07;;;5.53;;
30898;SDS011;17914;52.484;13.424;2024-02-16T01:24:19;9.00;;;6.35;;
30898;SDS011;17914;52.484;13.424;2024-02-16T01:26:48;8.43;;;5.85;;
30898;SDS011;17914;52.484;13.424;2024-02-16T01:29:16;8.23;;;6.28;;
30898;SDS011;17914;52.484;13.424;2024-02-16T01:31:44;8.68;;;6.07;;
30898;SDS011;17914;52.484;13.424;2024-02-16T01:34:13;7.60;;;5.93;;
30898;SDS011;17914;52.484;13.424;2024-02-16T01:36:42;8.60;;;6.45;;
30898;SDS011;17914;52.484;13.424;2024-02-16T01:39:10;8.38;;;6.55;;
30898;SDS011;17914;52.484;13.424;2024-02-16T01:41:38;9.95;;;6.13;;
30898;SDS011;17914;52.484;13.424;2024-02-16T01:44:06;9.40;;;6.22;;
30898;SDS011;17914;52.484;13.424;2024-02-16T01:46:35;7.78;;;6.13;;
30898;SDS011;17914;52.484;13.424;2024-02-16T01:49:03;8.18;;;6.47;;
30898;SDS011;17914;52.484;13.424;2024-02-16T01:51:33;7.47;;;6.10;;
30898;SDS011;17914;52.484;13.424;2024-02-16T01:54:02;9.83;;;7.03;;
30898;SDS011;17914;52.484;13.424;2024-02-16T01:56:29;8.38;;;6.40;;
30898;SDS011;17914;52.484;13.424;2024-02-16T01:58:57;8.18;;;6.78;;
30898;SDS011;17914;52.484;13.424;2024-02-16T02:01:25;11.85;;;7.03;;
30898;SDS011;17914;52.484;13.424;2024-02-16T02:03:54;10.07;;;6.28;;
30898;SDS011;17914;52.484;13.424;2024-02-16T02:06:22;9.02;;;6.95;;
30898;SDS011;17914;52.484;13.424;2024-02-16T02:08:52;7.85;;;6.47;;
30898;SDS011;17914;52.484;13.424;2024-02-16T02:11:20;10.88;;;7.80;;
30898;SDS011;17914;52.484;13.424;2024-02-16T02:13:50;9.50;;;6.80;;
30898;SDS011;17914;52.484;13.424;2024-02-16T02:16:18;9.30;;;7.93;;
30898;SDS011;17914;52.484;13.424;2024-02-16T02:18:48;9.63;;;7.80;;
30898;SDS011;17914;52.484;13.424;2024-02-16T02:21:16;10.32;;;7.07;;
30898;SDS011;17914;52.484;13.424;2024-02-16T02:23:46;9.93;;;7.50;;
30898;SDS011;17914;52.484;13.424;2024-02-16T02:26:14;10.40;;;8.18;;
30898;SDS011;17914;52.484;13.424;2024-02-16T02:28:43;10.32;;;8.50;;
30898;SDS011;17914;52.484;13.424;2024-02-16T02:31:11;10.23;;;8.00;;
30898;SDS011;17914;52.484;13.424;2024-02-16T02:33:39;13.15;;;8.10;;
30898;SDS011;17914;52.484;13.424;2024-02-16T02:36:07;10.70;;;8.35;;
30898;SDS011;17914;52.484;13.424;2024-02-16T02:38:35;11.15;;;8.52;;
30898;SDS011;17914;52.484;13.424;2024-02-16T02:41:05;11.48;;;9.27;;
30898;SDS011;17914;52.484;13.424;2024-02-16T02:43:33;10.15;;;8.02;;
30898;SDS011;17914;52.484;13.424;2024-02-16T02:46:01;9.82;;;8.00;;
30898;SDS011;17914;52.484;13.424;2024-02-16T02:48:30;10.88;;;8.73;;
30898;SDS011;17914;52.484;13.424;2024-02-16T02:50:58;10.45;;;9.02;;
30898;SDS011;17914;52.484;13.424;2024-02-16T02:53:27;11.93;;;8.20;;
30898;SDS011;17914;52.484;13.424;2024-02-16T02:55:56;9.75;;;8.68;;
30898;SDS011;17914;52.484;13.424;2024-02-16T02:58:25;11.73;;;8.57;;
30898;SDS011;17914;52.484;13.424;2024-02-16T03:00:53;12.18;;;9.23;;
30898;SDS011;17914;52.484;13.424;2024-02-16T03:03:21;11.27;;;8.98;;
30898;SDS011;17914;52.484;13.424;2024-02-16T03:05:50;14.48;;;9.45;;
30898;SDS011;17914;52.484;13.424;2024-02-16T03:08:18;11.00;;;9.15;;
30898;SDS011;17914;52.484;13.424;2024-02-16T03:10:46;9.95;;;8.95;;
30898;SDS011;17914;52.484;13.424;2024-02-16T03:13:14;13.07;;;9.23;;
30898;SDS011;17914;52.484;13.424;2024-02-16T03:15:46;11.73;;;9.48;;
30898;SDS011;17914;52.484;13.424;2024-02-16T03:18:14;13.70;;;9.18;;
30898;SDS011;17914;52.484;13.424;2024-02-16T03:20:42;15.63;;;10.18;;
30898;SDS011;17914;52.484;13.424;2024-02-16T03:23:12;10.35;;;8.82;;
30898;SDS011;17914;52.484;13.424;2024-02-16T03:25:40;12.90;;;8.98;;
30898;SDS011;17914;52.484;13.424;2024-02-16T03:28:09;12.68;;;9.70;;
30898;SDS011;17914;52.484;13.424;2024-02-16T03:30:39;12.95;;;9.45;;
30898;SDS011;17914;52.484;13.424;2024-02-16T03:33:09;11.02;;;9.55;;
30898;SDS011;17914;52.484;13.424;2024-02-16T03:35:37;12.30;;;9.63;;
30898;SDS011;17914;52.484;13.424;2024-02-16T03:38:06;11.65;;;9.80;;
30898;SDS011;17914;52.484;13.424;2024-02-16T03:40:35;12.68;;;9.77;;
30898;SDS011;17914;52.484;13.424;2024-02-16T03:43:03;16.42;;;10.98;;
30898;SDS011;17914;52.484;13.424;2024-02-16T03:45:31;12.65;;;9.07;;
30898;SDS011;17914;52.484;13.424;2024-02-16T03:48:00;11.82;;;8.98;;
30898;SDS011;17914;52.484;13.424;2024-02-16T03:50:29;12.02;;;8.88;;
30898;SDS011;17914;52.484;13.424;2024-02-16T03:52:57;10.85;;;9.00;;
30898;SDS011;17914;52.484;13.424;2024-02-16T03:55:25;11.65;;;9.90;;
30898;SDS011;17914;52.484;13.424;2024-02-16T03:57:54;12.23;;;10.07;;
30898;SDS011;17914;52.484;13.424;2024-02-16T04:00:22;11.75;;;8.93;;
30898;SDS011;17914;52.484;13.424;2024-02-16T04:02:50;18.20;;;9.70;;
30898;SDS011;17914;52.484;13.424;2024-02-16T04:05:18;11.98;;;9.68;;
30898;SDS011;17914;52.484;13.424;2024-02-16T04:07:48;13.68;;;9.32;;
30898;SDS011;17914;52.484;13.424;2024-02-16T04:10:16;13.27;;;9.30;;
30898;SDS011;17914;52.484;13.424;2024-02-16T04:12:43;16.85;;;9.90;;
30898;SDS011;17914;52.484;13.424;2024-02-16T04:15:12;14.60;;;9.65;;
30898;SDS011;17914;52.484;13.424;2024-02-16T04:17:40;11.05;;;9.65;;
30898;SDS011;17914;52.484;13.424;2024-02-16T04:20:09;13.40;;;9.25;;
30898;SDS011;17914;52.484;13.424;2024-02-16T04:22:37;13.88;;;9.90;;
30898;SDS011;17914;52.484;13.424;2024-02-16T04:25:07;10.68;;;9.07;;
30898;SDS011;17914;52.484;13.424;2024-02-16T04:27:36;11.48;;;9.48;;
30898;SDS011;17914;52.484;13.424;2024-02-16T04:30:04;11.98;;;10.00;;
30898;SDS011;17914;52.484;13.424;2024-02-16T04:32:33;16.15;;;9.38;;
30898;SDS011;17914;52.484;13.424;2024-02-16T04:35:02;12.95;;;9.40;;
30898;SDS011;17914;52.484;13.424;2024-02-16T04:37:30;12.82;;;9.48;;
30898;SDS011;17914;52.484;13.424;2024-02-16T04:39:58;11.65;;;8.73;;
30898;SDS011;17914;52.484;13.424;2024-02-16T04:42:28;12.77;;;9.10;;
30898;SDS011;17914;52.484;13.424;2024-02-16T04:44:56;11.50;;;8.68;;
30898;SDS011;17914;52.484;13.424;2024-02-16T04:47:26;11.67;;;9.30;;
30898;SDS011;17914;52.484;13.424;2024-02-16T04:49:54;10.52;;;8.10;;
30898;SDS011;17914;52.484;13.424;2024-02-16T04:52:23;13.75;;;9.13;;
30898;SDS011;17914;52.484;13.424;2024-02-16T04:54:55;15.45;;;9.13;;
30898;SDS011;17914;52.484;13.424;2024-02-16T04:57:23;10.43;;;8.77;;
30898;SDS011;17914;52.484;13.424;2024-02-16T04:59:53;11.27;;;8.68;;
30898;SDS011;17914;52.484;13.424;2024-02-16T05:02:21;10.68;;;8.48;;
30898;SDS011;17914;52.484;13.424;2024-02-16T05:04:49;13.57;;;9.48;;
30898;SDS011;17914;52.484;13.424;2024-02-16T05:07:17;10.57;;;8.27;;
30898;SDS011;17914;52.484;13.424;2024-02-16T05:09:46;10.05;;;8.38;;
30898;SDS011;17914;52.484;13.424;2024-02-16T05:12:16;14.38;;;9.40;;
30898;SDS011;17914;52.484;13.424;2024-02-16T05:14:47;14.93;;;9.87;;
30898;SDS011;17914;52.484;13.424;2024-02-16T05:17:17;10.23;;;8.32;;
30898;SDS011;17914;52.484;13.424;2024-02-16T05:19:46;12.00;;;8.98;;
30898;SDS011;17914;52.484;13.424;2024-02-16T05:22:15;12.57;;;8.27;;
30898;SDS011;17914;52.484;13.424;2024-02-16T05:24:44;10.18;;;7.90;;
30898;SDS011;17914;52.484;13.424;2024-02-16T05:27:12;11.25;;;8.35;;
30898;SDS011;17914;52.484;13.424;2024-02-16T05:29:40;14.07;;;8.73;;
30898;SDS011;17914;52.484;13.424;2024-02-16T05:32:08;10.32;;;9.15;;
30898;SDS011;17914;52.484;13.424;2024-02-16T05:34:38;17.85;;;9.27;;
30898;SDS011;17914;52.484;13.424;2024-02-16T05:37:06;10.57;;;8.18;;
30898;SDS011;17914;52.484;13.424;2024-02-16T05:39:36;10.88;;;8.13;;
30898;SDS011;17914;52.484;13.424;2024-02-16T05:42:20;13.07;;;8.70;;
30898;SDS011;17914;52.484;13.424;2024-02-16T05:44:49;15.20;;;9.35;;
30898;SDS011;17914;52.484;13.424;2024-02-16T05:47:17;13.52;;;9.00;;
30898;SDS011;17914;52.484;13.424;2024-02-16T05:49:48;11.35;;;7.78;;
30898;SDS011;17914;52.484;13.424;2024-02-16T05:52:16;11.55;;;7.80;;
30898;SDS011;17914;52.484;13.424;2024-02-16T05:54:44;10.00;;;8.52;;
30898;SDS011;17914;52.484;13.424;2024-02-16T05:57:13;11.43;;;7.68;;
30898;SDS011;17914;52.484;13.424;2024-02-16T05:59:41;9.25;;;7.55;;
30898;SDS011;17914;52.484;13.424;2024-02-16T06:02:09;10.02;;;7.50;;
30898;SDS011;17914;52.484;13.424;2024-02-16T06:04:38;14.13;;;9.10;;
30898;SDS011;17914;52.484;13.424;2024-02-16T06:07:08;11.77;;;8.07;;
30898;SDS011;17914;52.484;13.424;2024-02-16T06:09:37;11.45;;;8.35;;
30898;SDS011;17914;52.484;13.424;2024-02-16T06:12:06;10.00;;;7.25;;
30898;SDS011;17914;52.484;13.424;2024-02-16T06:14:35;8.95;;;6.95;;
30898;SDS011;17914;52.484;13.424;2024-02-16T06:17:04;11.32;;;8.38;;
30898;SDS011;17914;52.484;13.424;2024-02-16T06:19:32;12.10;;;8.63;;
30898;SDS011;17914;52.484;13.424;2024-02-16T06:22:00;9.73;;;7.32;;
30898;SDS011;17914;52.484;13.424;2024-02-16T06:24:29;10.57;;;8.07;;
30898;SDS011;17914;52.484;13.424;2024-02-16T06:26:57;10.55;;;7.50;;
30898;SDS011;17914;52.484;13.424;2024-02-16T06:29:25;11.40;;;8.05;;
30898;SDS011;17914;52.484;13.424;2024-02-16T06:31:54;13.20;;;8.65;;
30898;SDS011;17914;52.484;13.424;2024-02-16T06:34:22;13.80;;;8.85;;
30898;SDS011;17914;52.484;13.424;2024-02-16T06:36:50;11.30;;;7.65;;
30898;SDS011;17914;52.484;13.424;2024-02-16T06:39:18;10.43;;;7.63;;
30898;SDS011;17914;52.484;13.424;2024-02-16T06:41:48;11.80;;;8.20;;
30898;SDS011;17914;52.484;13.424;2024-02-16T06:44:16;11.05;;;6.95;;
30898;SDS011;17914;52.484;13.424;2024-02-16T06:46:48;9.80;;;8.02;;
30898;SDS011;17914;52.484;13.424;2024-02-16T06:49:16;9.90;;;7.07;;
30898;SDS011;17914;52.484;13.424;2024-02-16T06:51:44;10.50;;;7.75;;
30898;SDS011;17914;52.484;13.424;2024-02-16T06:54:13;11.45;;;7.57;;
30898;SDS011;17914;52.484;13.424;2024-02-16T06:56:42;11.25;;;8.57;;
30898;SDS011;17914;52.484;13.424;2024-02-16T06:59:11;9.05;;;6.78;;
30898;SDS011;17914;52.484;13.424;2024-02-16T07:01:39;12.30;;;8.13;;
30898;SDS011;17914;52.484;13.424;2024-02-16T07:04:08;11.98;;;7.00;;
30898;SDS011;17914;52.484;13.424;2024-02-16T07:06:36;9.15;;;7.65;;
30898;SDS011;17914;52.484;13.424;2024-02-16T07:09:04;11.90;;;8.50;;
30898;SDS011;17914;52.484;13.424;2024-02-16T07:11:32;12.38;;;7.85;;
30898;SDS011;17914;52.484;13.424;2024-02-16T07:14:02;12.88;;;8.43;;
30898;SDS011;17914;52.484;13.424;2024-02-16T07:16:34;9.85;;;7.70;;
30898;SDS011;17914;52.484;13.424;2024-02-16T07:19:02;12.73;;;8.00;;
30898;SDS011;17914;52.484;13.424;2024-02-16T07:21:31;13.02;;;7.63;;
30898;SDS011;17914;52.484;13.424;2024-02-16T07:24:00;12.02;;;7.75;;
30898;SDS011;17914;52.484;13.424;2024-02-16T07:26:28;9.63;;;6.60;;
30898;SDS011;17914;52.484;13.424;2024-02-16T07:28:56;11.60;;;7.50;;
30898;SDS011;17914;52.484;13.424;2024-02-16T07:31:24;10.27;;;7.70;;
30898;SDS011;17914;52.484;13.424;2024-02-16T07:33:54;9.50;;;7.07;;
30898;SDS011;17914;52.484;13.424;2024-02-16T07:36:22;10.23;;;7.05;;
30898;SDS011;17914;52.484;13.424;2024-02-16T07:38:50;9.25;;;6.85;;
30898;SDS011;17914;52.484;13.424;2024-02-16T07:41:18;8.50;;;6.60;;
30898;SDS011;17914;52.484;13.424;2024-02-16T07:43:46;8.68;;;6.32;;
30898;SDS011;17914;52.484;13.424;2024-02-16T07:46:14;10.05;;;7.18;;
30898;SDS011;17914;52.484;13.424;2024-02-16T07:48:42;8.15;;;6.72;;
30898;SDS011;17914;52.484;13.424;2024-02-16T07:51:12;7.60;;;6.15;;
30898;SDS011;17914;52.484;13.424;2024-02-16T07:53:40;9.32;;;7.15;;
30898;SDS011;17914;52.484;13.424;2024-02-16T07:56:11;13.40;;;7.63;;
30898;SDS011;17914;52.484;13.424;2024-02-16T07:58:40;10.57;;;6.85;;
30898;SDS011;17914;52.484;13.424;2024-02-16T08:01:11;9.02;;;8.07;;
30898;SDS011;17914;52.484;13.424;2024-02-16T08:03:41;9.77;;;6.90;;
30898;SDS011;17914;52.484;13.424;2024-02-16T08:06:09;9.20;;;7.10;;
30898;SDS011;17914;52.484;13.424;2024-02-16T08:08:39;8.55;;;6.65;;
30898;SDS011;17914;52.484;13.424;2024-02-16T08:11:07;7.65;;;6.38;;
30898;SDS011;17914;52.484;13.424;2024-02-16T08:13:35;9.75;;;7.18;;
30898;SDS011;17914;52.484;13.424;2024-02-16T08:16:04;13.13;;;7.28;;
30898;SDS011;17914;52.484;13.424;2024-02-16T08:18:33;8.55;;;6.88;;
30898;SDS011;17914;52.484;13.424;2024-02-16T08:21:01;8.70;;;6.35;;
30898;SDS011;17914;52.484;13.424;2024-02-16T08:23:31;8.63;;;6.28;;
30898;SDS011;17914;52.484;13.424;2024-02-16T08:26:00;11.02;;;7.60;;
30898;SDS011;17914;52.484;13.424;2024-02-16T08:28:28;9.25;;;6.32;;
30898;SDS011;17914;52.484;13.424;2024-02-16T08:30:56;10.43;;;7.45;;
30898;SDS011;17914;52.484;13.424;2024-02-16T08:33:24;9.77;;;7.45;;
30898;SDS011;17914;52.484;13.424;2024-02-16T08:35:52;11.98;;;7.43;;
30898;SDS011;17914;52.484;13.424;2024-02-16T08:38:21;12.38;;;9.05;;
30898;SDS011;17914;52.484;13.424;2024-02-16T08:40:50;12.15;;;8.07;;
30898;SDS011;17914;52.484;13.424;2024-02-16T08:43:18;12.65;;;7.38;;
30898;SDS011;17914;52.484;13.424;2024-02-16T08:45:47;13.38;;;7.68;;
30898;SDS011;17914;52.484;13.424;2024-02-16T08:48:15;12.00;;;8.18;;
30898;SDS011;17914;52.484;13.424;2024-02-16T08:50:43;12.23;;;7.72;;
30898;SDS011;17914;52.484;13.424;2024-02-16T08:53:11;42.80;;;9.95;;
30898;SDS011;17914;52.484;13.424;2024-02-16T08:55:40;13.15;;;8.80;;
30898;SDS011;17914;52.484;13.424;2024-02-16T08:58:09;11.63;;;8.18;;
30898;SDS011;17914;52.484;13.424;2024-02-16T09:00:39;9.27;;;7.35;;
30898;SDS011;17914;52.484;13.424;2024-02-16T09:03:07;11.55;;;7.55;;
30898;SDS011;17914;52.484;13.424;2024-02-16T09:05:35;9.75;;;7.65;;
30898;SDS011;17914;52.484;13.424;2024-02-16T09:08:04;12.13;;;8.32;;
30898;SDS011;17914;52.484;13.424;2024-02-16T09:10:32;10.80;;;7.35;;
30898;SDS011;17914;52.484;13.424;2024-02-16T09:15:33;16.40;;;8.25;;
30898;SDS011;17914;52.484;13.424;2024-02-16T09:18:01;11.75;;;8.30;;
30898;SDS011;17914;52.484;13.424;2024-02-16T09:20:29;12.77;;;8.52;;
30898;SDS011;17914;52.484;13.424;2024-02-16T09:22:57;13.07;;;7.75;;
30898;SDS011;17914;52.484;13.424;2024-02-16T09:25:26;12.65;;;8.55;;
30898;SDS011;17914;52.484;13.424;2024-02-16T09:27:54;11.45;;;7.95;;
30898;SDS011;17914;52.484;13.424;2024-02-16T09:30:22;11.73;;;8.23;;
30898;SDS011;17914;52.484;13.424;2024-02-16T09:32:53;11.60;;;7.10;;
30898;SDS011;17914;52.484;13.424;2024-02-16T09:35:21;9.80;;;7.63;;
30898;SDS011;17914;52.484;13.424;2024-02-16T09:37:49;14.43;;;8.80;;
30898;SDS011;17914;52.484;13.424;2024-02-16T09:40:17;14.95;;;7.50;;
30898;SDS011;17914;52.484;13.424;2024-02-16T09:42:47;10.75;;;6.90;;
30898;SDS011;17914;52.484;13.424;2024-02-16T09:45:17;9.15;;;6.88;;
30898;SDS011;17914;52.484;13.424;2024-02-16T09:47:45;9.65;;;6.50;;
30898;SDS011;17914;52.484;13.424;2024-02-16T09:50:27;10.53;;;6.73;;
30898;SDS011;17914;52.484;13.424;2024-02-16T09:52:56;8.67;;;6.17;;
30898;SDS011;17914;52.484;13.424;2024-02-16T09:55:25;9.15;;;6.45;;
30898;SDS011;17914;52.484;13.424;2024-02-16T09:58:00;11.88;;;6.40;;
30898;SDS011;17914;52.484;13.424;2024-02-16T10:00:31;11.05;;;6.25;;
30898;SDS011;17914;52.484;13.424;2024-02-16T10:03:00;8.98;;;5.82;;
30898;SDS011;17914;52.484;13.424;2024-02-16T10:05:29;12.68;;;6.18;;
30898;SDS011;17914;52.484;13.424;2024-02-16T10:07:58;11.00;;;6.70;;
30898;SDS011;17914;52.484;13.424;2024-02-16T10:10:27;9.07;;;6.05;;
30898;SDS011;17914;52.484;13.424;2024-02-16T10:13:00;9.75;;;6.53;;
30898;SDS011;17914;52.484;13.424;2024-02-16T10:15:30;8.40;;;5.88;;
30898;SDS011;17914;52.484;13.424;2024-02-16T10:17:59;9.05;;;5.40;;
30898;SDS011;17914;52.484;13.424;2024-02-16T10:20:28;8.48;;;5.50;;
30898;SDS011;17914;52.484;13.424;2024-02-16T10:23:04;7.67;;;5.43;;
30898;SDS011;17914;52.484;13.424;2024-02-16T10:25:33;8.60;;;5.32;;
30898;SDS011;17914;52.484;13.424;2024-02-16T10:28:03;7.82;;;5.65;;
30898;SDS011;17914;52.484;13.424;2024-02-16T10:30:34;6.85;;;5.45;;
30898;SDS011;17914;52.484;13.424;2024-02-16T10:33:05;8.15;;;5.57;;
30898;SDS011;17914;52.484;13.424;2024-02-16T10:35:36;7.25;;;5.80;;
30898;SDS011;17914;52.484;13.424;2024-02-16T10:38:06;7.78;;;5.18;;
30898;SDS011;17914;52.484;13.424;2024-02-16T10:40:37;13.48;;;5.50;;
30898;SDS011;17914;52.484;13.424;2024-02-16T10:43:06;8.27;;;5.43;;
30898;SDS011;17914;52.484;13.424;2024-02-16T10:45:35;7.65;;;5.70;;
30898;SDS011;17914;52.484;13.424;2024-02-16T10:48:04;7.90;;;5.18;;
30898;SDS011;17914;52.484;13.424;2024-02-16T10:50:36;6.60;;;4.45;;
30898;SDS011;17914;52.484;13.424;2024-02-16T10:53:07;7.18;;;5.00;;
30898;SDS011;17914;52.484;13.424;2024-02-16T10:55:40;6.35;;;4.35;;
30898;SDS011;17914;52.484;13.424;2024-02-16T10:58:10;7.25;;;5.15;;
30898;SDS011;17914;52.484;13.424;2024-02-16T11:00:47;7.10;;;5.70;;
30898;SDS011;17914;52.484;13.424;2024-02-16T11:03:17;8.80;;;4.63;;
30898;SDS011;17914;52.484;13.424;2024-02-16T11:05:47;6.70;;;4.72;;
30898;SDS011;17914;52.484;13.424;2024-02-16T11:08:16;6.07;;;4.53;;
30898;SDS011;17914;52.484;13.424;2024-02-16T11:10:54;7.20;;;4.75;;
30898;SDS011;17914;52.484;13.424;2024-02-16T11:13:23;6.15;;;4.22;;
30898;SDS011;17914;52.484;13.424;2024-02-16T11:15:59;5.22;;;4.07;;
30898;SDS011;17914;52.484;13.424;2024-02-16T11:18:29;7.15;;;4.70;;
30898;SDS011;17914;52.484;13.424;2024-02-16T11:21:01;7.78;;;5.28;;
30898;SDS011;17914;52.484;13.424;2024-02-16T11:23:30;8.68;;;4.82;;
30898;SDS011;17914;52.484;13.424;2024-02-16T11:26:00;6.85;;;4.85;;
30898;SDS011;17914;52.484;13.424;2024-02-16T11:28:30;6.63;;;4.78;;
30898;SDS011;17914;52.484;13.424;2024-02-16T11:30:59;5.43;;;4.20;;
30898;SDS011;17914;52.484;13.424;2024-02-16T11:33:29;6.22;;;4.60;;
30898;SDS011;17914;52.484;13.424;2024-02-16T11:35:58;5.78;;;4.30;;
30898;SDS011;17914;52.484;13.424;2024-02-16T11:38:30;6.65;;;4.35;;
30898;SDS011;17914;52.484;13.424;2024-02-16T11:41:00;6.55;;;4.95;;
30898;SDS011;17914;52.484;13.424;2024-02-16T11:43:30;4.95;;;4.07;;
30898;SDS011;17914;52.484;13.424;2024-02-16T11:46:10;6.35;;;4.47;;
30898;SDS011;17914;52.484;13.424;2024-02-16T11:48:39;6.30;;;4.88;;
30898;SDS011;17914;52.484;13.424;2024-02-16T11:51:08;5.15;;;4.00;;
30898;SDS011;17914;52.484;13.424;2024-02-16T11:53:37;6.55;;;4.47;;
30898;SDS011;17914;52.484;13.424;2024-02-16T11:56:06;5.32;;;3.63;;
30898;SDS011;17914;52.484;13.424;2024-02-16T11:58:34;9.77;;;4.43;;
30898;SDS011;17914;52.484;13.424;2024-02-16T12:01:03;8.98;;;4.68;;
30898;SDS011;17914;52.484;13.424;2024-02-16T12:03:40;6.00;;;4.03;;
30898;SDS011;17914;52.484;13.424;2024-02-16T12:06:18;11.43;;;4.25;;
30898;SDS011;17914;52.484;13.424;2024-02-16T12:08:50;8.63;;;4.30;;
30898;SDS011;17914;52.484;13.424;2024-02-16T12:11:19;13.45;;;4.93;;
30898;SDS011;17914;52.484;13.424;2024-02-16T12:13:48;7.75;;;4.50;;
30898;SDS011;17914;52.484;13.424;2024-02-16T12:16:18;9.10;;;4.78;;
30898;SDS011;17914;52.484;13.424;2024-02-16T12:18:46;13.18;;;5.07;;
30898;SDS011;17914;52.484;13.424;2024-02-16T12:21:17;6.72;;;4.35;;
30898;SDS011;17914;52.484;13.424;2024-02-16T12:23:46;7.93;;;4.45;;
30898;SDS011;17914;52.484;13.424;2024-02-16T12:26:16;6.25;;;3.95;;
30898;SDS011;17914;52.484;13.424;2024-02-16T12:28:44;9.90;;;4.65;;
30898;SDS011;17914;52.484;13.424;2024-02-16T12:31:17;6.55;;;4.38;;
30898;SDS011;17914;52.484;13.424;2024-02-16T12:33:46;5.05;;;3.80;;
30898;SDS011;17914;52.484;13.424;2024-02-16T12:36:15;6.35;;;3.90;;
30898;SDS011;17914;52.484;13.424;2024-02-16T12:38:44;7.25;;;4.80;;
30898;SDS011;17914;52.484;13.424;2024-02-16T12:41:12;7.88;;;4.57;;
30898;SDS011;17914;52.484;13.424;2024-02-16T12:43:42;7.55;;;4.45;;
30898;SDS011;17914;52.484;13.424;2024-02-16T12:46:10;8.18;;;4.68;;
30898;SDS011;17914;52.484;13.424;2024-02-16T12:48:38;5.47;;;3.90;;
30898;SDS011;17914;52.484;13.424;2024-02-16T12:51:07;4.97;;;3.42;;
30898;SDS011;17914;52.484;13.424;2024-02-16T12:53:37;5.57;;;4.17;;
30898;SDS011;17914;52.484;13.424;2024-02-16T12:56:07;6.65;;;4.25;;
30898;SDS011;17914;52.484;13.424;2024-02-16T12:58:36;6.57;;;3.75;;
30898;SDS011;17914;52.484;13.424;2024-02-16T13:01:06;6.53;;;4.05;;
30898;SDS011;17914;52.484;13.424;2024-02-16T13:03:48;6.78;;;4.68;;
30898;SDS011;17914;52.484;13.424;2024-02-16T13:06:16;5.68;;;3.95;;
30898;SDS011;17914;52.484;13.424;2024-02-16T13:08:48;5.63;;;3.85;;
30898;SDS011;17914;52.484;13.424;2024-02-16T13:11:16;4.20;;;3.47;;
30898;SDS011;17914;52.484;13.424;2024-02-16T13:13:45;6.15;;;4.40;;
30898;SDS011;17914;52.484;13.424;2024-02-16T13:16:15;4.32;;;3.53;;
30898;SDS011;17914;52.484;13.424;2024-02-16T13:18:43;5.78;;;4.07;;
30898;SDS011;17914;52.484;13.424;2024-02-16T13:21:11;4.93;;;3.15;;
30898;SDS011;17914;52.484;13.424;2024-02-16T13:23:40;5.00;;;4.47;;
30898;SDS011;17914;52.484;13.424;2024-02-16T13:26:09;3.88;;;3.42;;
30898;SDS011;17914;52.484;13.424;2024-02-16T13:28:37;6.82;;;4.45;;
30898;SDS011;17914;52.484;13.424;2024-02-16T13:31:05;5.82;;;4.38;;
30898;SDS011;17914;52.484;13.424;2024-02-16T13:33:37;5.47;;;3.85;;
30898;SDS011;17914;52.484;13.424;2024-02-16T13:36:05;5.13;;;3.38;;
30898;SDS011;17914;52.484;13.424;2024-02-16T13:38:35;5.33;;;3.63;;
30898;SDS011;17914;52.484;13.424;2024-02-16T13:41:04;6.13;;;3.25;;
30898;SDS011;17914;52.484;13.424;2024-02-16T13:43:32;5.32;;;3.80;;
30898;SDS011;17914;52.484;13.424;2024-02-16T13:46:00;3.78;;;2.83;;
30898;SDS011;17914;52.484;13.424;2024-02-16T13:48:30;3.97;;;3.28;;
30898;SDS011;17914;52.484;13.424;2024-02-16T13:51:00;8.05;;;3.55;;
30898;SDS011;17914;52.484;13.424;2024-02-16T13:53:28;9.02;;;4.13;;
30898;SDS011;17914;52.484;13.424;2024-02-16T13:58:30;11.07;;;3.97;;
30898;SDS011;17914;52.484;13.424;2024-02-16T14:01:00;4.88;;;3.35;;
30898;SDS011;17914;52.484;13.424;2024-02-16T14:03:29;5.65;;;4.28;;
30898;SDS011;17914;52.484;13.424;2024-02-16T14:06:00;6.63;;;3.38;;
30898;SDS011;17914;52.484;13.424;2024-02-16T14:08:28;7.70;;;3.45;;
30898;SDS011;17914;52.484;13.424;2024-02-16T14:10:57;4.22;;;2.92;;
30898;SDS011;17914;52.484;13.424;2024-02-16T14:13:26;5.40;;;3.50;;
30898;SDS011;17914;52.484;13.424;2024-02-16T14:15:55;7.53;;;3.40;;
30898;SDS011;17914;52.484;13.424;2024-02-16T14:18:23;5.43;;;3.40;;
30898;SDS011;17914;52.484;13.424;2024-02-16T14:21:01;6.18;;;3.35;;
30898;SDS011;17914;52.484;13.424;2024-02-16T14:23:30;7.40;;;4.03;;
30898;SDS011;17914;52.484;13.424;2024-02-16T14:25:59;8.25;;;3.80;;
30898;SDS011;17914;52.484;13.424;2024-02-16T14:28:27;7.20;;;3.35;;
30898;SDS011;17914;52.484;13.424;2024-02-16T14:30:55;6.97;;;3.80;;
30898;SDS011;17914;52.484;13.424;2024-02-16T14:33:23;5.72;;;3.70;;
30898;SDS011;17914;52.484;13.424;2024-02-16T14:35:59;4.95;;;3.20;;
30898;SDS011;17914;52.484;13.424;2024-02-16T14:38:29;3.85;;;3.08;;
30898;SDS011;17914;52.484;13.424;2024-02-16T14:40:57;4.60;;;3.22;;
30898;SDS011;17914;52.484;13.424;2024-02-16T14:43:30;7.97;;;4.30;;
30898;SDS011;17914;52.484;13.424;2024-02-16T14:45:59;4.70;;;3.38;;